createdAt,value
2018-03-29T11:32:39.662Z,98631.69
2018-03-29T11:35:10.226Z,98636.03
2018-03-29T11:37:39.641Z,98634.38
2018-03-29T11:40:10.759Z,98624.56
2018-03-29T11:42:41.148Z,98636.55
2018-03-29T11:45:12.808Z,98630.72
2018-03-29T11:47:43.367Z,98633.20
2018-03-29T11:50:14.911Z,98634.06
2018-03-29T11:52:45.125Z,98643.84
2018-03-29T11:55:15.942Z,98633.62
2018-03-29T11:57:46.283Z,98635.70
2018-03-29T12:00:16.471Z,98632.91
2018-03-29T12:02:45.547Z,98628.75
2018-03-29T12:05:15.026Z,98630.52
2018-03-29T12:07:44.052Z,98638.35
2018-03-29T12:10:12.693Z,98638.64
2018-03-29T12:12:42.034Z,98638.23
2018-03-29T12:15:10.826Z,98641.02
2018-03-29T12:17:39.774Z,98639.52
2018-03-29T12:20:08.784Z,98634.55
2018-03-29T12:22:38.413Z,98638.24
2018-03-29T12:25:07.603Z,98637.66
2018-03-29T12:27:36.413Z,98635.89
2018-03-29T12:30:05.473Z,98633.84
2018-03-29T12:32:34.477Z,98632.27
2018-03-29T12:35:04.690Z,98641.05
2018-03-29T12:37:33.805Z,98640.51
2018-03-29T12:40:02.570Z,98636.62
2018-03-29T12:42:31.501Z,98635.44
2018-03-29T12:45:00.291Z,98628.58
2018-03-29T12:47:29.808Z,98629.75
2018-03-29T12:49:59.121Z,98622.13
2018-03-29T12:52:28.429Z,98623.33
2018-03-29T12:55:09.452Z,98624.41
2018-03-29T12:57:50.106Z,98631.28
2018-03-29T13:00:19.492Z,98629.16
2018-03-29T13:02:48.545Z,98633.23
2018-03-29T13:05:17.836Z,98634.90
2018-03-29T13:07:46.552Z,98634.94
2018-03-29T13:10:16.317Z,98633.32
2018-03-29T13:12:45.562Z,98637.37
2018-03-29T13:15:14.541Z,98634.42
2018-03-29T13:17:43.825Z,98642.30
2018-03-29T13:20:13.832Z,98637.77
2018-03-29T13:22:43.868Z,98643.44
2018-03-29T13:25:13.070Z,98641.25
2018-03-29T13:27:41.891Z,98644.08
2018-03-29T13:30:13.385Z,98642.63
2018-03-29T13:32:42.886Z,98651.25
2018-03-29T13:35:13.200Z,98651.12
2018-03-29T13:37:42.454Z,98656.04
2018-03-29T13:40:11.907Z,98657.55
2018-03-29T13:42:41.082Z,98654.62
2018-03-29T13:45:10.076Z,98656.02
2018-03-29T13:47:39.209Z,98652.34
2018-03-29T13:50:08.290Z,98660.30
2018-03-29T13:52:37.333Z,98655.28
2018-03-29T13:55:06.559Z,98658.64
2018-03-29T13:57:36.027Z,98668.22
2018-03-29T14:00:05.479Z,98669.82
2018-03-29T14:02:34.467Z,98662.19
2018-03-29T14:05:03.928Z,98668.67
2018-03-29T14:07:33.670Z,98671.19
2018-03-29T14:10:03.388Z,98680.02
2018-03-29T14:12:34.661Z,98681.31
2018-03-29T14:15:06.057Z,98683.16
2018-03-29T14:17:35.689Z,98683.98
2018-03-29T14:20:07.099Z,98689.87
2018-03-29T14:22:38.155Z,98684.77
2018-03-29T14:25:07.342Z,98683.58
2018-03-29T14:27:36.670Z,98684.08
2018-03-29T14:30:05.622Z,98685.64
2018-03-29T14:32:34.372Z,98692.52
2018-03-29T14:35:03.412Z,98694.27
2018-03-29T14:37:32.670Z,98697.84
2018-03-29T14:40:01.844Z,98700.86
2018-03-29T14:42:30.753Z,98703.45
2018-03-29T14:45:00.226Z,98710.28
2018-03-29T14:47:29.574Z,98721.50
2018-03-29T14:49:59.148Z,98717.88
2018-03-29T14:52:29.163Z,98723.92
2018-03-29T14:54:59.415Z,98717.42
2018-03-29T14:57:29.534Z,98716.22
2018-03-29T14:59:58.809Z,98725.77
2018-03-29T15:02:27.832Z,98723.80
2018-03-29T15:04:56.493Z,98723.27
2018-03-29T15:07:25.190Z,98727.34
2018-03-29T15:09:54.286Z,98733.02
2018-03-29T15:12:23.156Z,98732.52
2018-03-29T15:14:52.294Z,98729.63
2018-03-29T15:17:21.291Z,98740.30
2018-03-29T15:19:50.366Z,98744.22
2018-03-29T15:22:19.476Z,98740.42
2018-03-29T15:24:48.701Z,98743.08
2018-03-29T15:27:17.993Z,98738.73
2018-03-29T15:29:47.271Z,98745.20
2018-03-29T15:32:16.359Z,98746.50
2018-03-29T15:34:45.581Z,98749.50
2018-03-29T15:37:14.625Z,98752.16
2018-03-29T15:39:44.073Z,98751.61
2018-03-29T15:42:13.355Z,98748.78
2018-03-29T15:44:42.322Z,98751.89
2018-03-29T15:47:11.108Z,98763.97
2018-03-29T15:49:40.187Z,98760.13
2018-03-29T15:52:09.593Z,98764.73
2018-03-29T15:54:38.997Z,98767.67
2018-03-29T15:57:10.947Z,98767.00
2018-03-29T15:59:40.662Z,98770.77
2018-03-29T16:02:11.458Z,98766.94
2018-03-29T16:07:21.711Z,98768.79
2018-03-29T16:09:54.809Z,98765.22
2018-03-29T16:12:32.441Z,98764.20
2018-03-29T16:15:07.720Z,98768.23
2018-03-29T16:17:36.668Z,98772.06
2018-03-29T16:20:05.612Z,98769.39
2018-03-29T16:22:34.496Z,98769.05
2018-03-29T16:25:03.506Z,98760.01
2018-03-29T16:27:32.351Z,98766.56
2018-03-29T16:30:01.386Z,98767.75
2018-03-29T16:32:30.676Z,98773.79
2018-03-29T16:35:00.002Z,98771.88
2018-03-29T16:37:29.521Z,98778.94
2018-03-29T16:39:58.952Z,98778.75
2018-03-29T16:42:31.031Z,98782.74
2018-03-29T16:45:01.343Z,98786.63
2018-03-29T16:47:30.610Z,98784.14
2018-03-29T16:50:07.093Z,98781.22
2018-03-29T16:52:36.954Z,98781.38
2018-03-29T16:55:06.869Z,98777.37
2018-03-29T16:57:36.996Z,98770.00
2018-03-29T17:00:06.168Z,98770.41
2018-03-29T17:02:36.105Z,98776.12
2018-03-29T17:05:05.403Z,98777.06
2018-03-29T17:07:34.556Z,98786.19
2018-03-29T17:10:05.329Z,98787.91
2018-03-29T17:12:34.366Z,98787.00
2018-03-29T17:15:05.670Z,98789.44
2018-03-29T17:17:35.888Z,98790.42
2018-03-29T17:20:06.596Z,98802.96
2018-03-29T17:22:36.542Z,98804.30
2018-03-29T17:25:06.107Z,98802.47
2018-03-29T17:27:35.448Z,98802.28
2018-03-29T17:30:05.224Z,98803.87
2018-03-29T17:32:36.024Z,98797.38
2018-03-29T17:35:05.358Z,98797.69
2018-03-29T17:37:34.940Z,98791.46
2018-03-29T17:40:04.355Z,98785.54
2018-03-29T17:42:34.519Z,98792.38
2018-03-29T17:45:03.649Z,98793.52
2018-03-29T17:47:32.698Z,98788.42
2018-03-29T17:50:01.731Z,98782.20
2018-03-29T17:52:31.172Z,98785.01
2018-03-29T17:55:00.686Z,98789.98
2018-03-29T17:57:30.448Z,98788.73
2018-03-29T18:00:00.754Z,98798.94
2018-03-29T18:02:30.566Z,98794.61
2018-03-29T18:05:00.710Z,98793.44
2018-03-29T18:07:30.019Z,98791.34
2018-03-29T18:09:59.331Z,98794.83
2018-03-29T18:12:28.505Z,98795.21
2018-03-29T18:14:57.475Z,98794.64
2018-03-29T18:17:26.563Z,98785.68
2018-03-29T18:19:55.760Z,98795.70
2018-03-29T18:22:24.717Z,98798.05
2018-03-29T18:24:53.825Z,98795.92
2018-03-29T18:27:23.382Z,98798.27
2018-03-29T18:29:52.554Z,98800.83
2018-03-29T18:32:21.215Z,98794.45
2018-03-29T18:34:50.347Z,98793.53
2018-03-29T18:37:19.638Z,98799.14
2018-03-29T18:39:48.848Z,98791.61
2018-03-29T18:42:18.023Z,98789.03
2018-03-29T18:44:47.127Z,98791.27
2018-03-29T18:47:16.736Z,98791.77
2018-03-29T18:49:46.204Z,98806.85
2018-03-29T18:52:15.397Z,98809.27
2018-03-29T18:54:44.952Z,98803.08
2018-03-29T18:57:14.307Z,98812.35
2018-03-29T18:59:43.432Z,98807.61
2018-03-29T19:02:12.811Z,98798.87
2018-03-29T19:04:41.631Z,98789.66
2018-03-29T19:07:10.505Z,98789.34
2018-03-29T19:09:39.778Z,98793.46
2018-03-29T19:12:08.808Z,98791.11
2018-03-29T19:14:38.298Z,98785.02
2018-03-29T19:17:07.075Z,98780.27
2018-03-29T19:19:36.051Z,98782.98
2018-03-29T19:22:05.100Z,98773.89
2018-03-29T19:24:34.363Z,98776.70
2018-03-29T19:27:03.390Z,98767.06
2018-03-29T19:29:32.572Z,98764.19
2018-03-29T19:32:01.746Z,98763.28
2018-03-29T19:34:30.652Z,98755.67
2018-03-29T19:36:59.910Z,98754.56
2018-03-29T19:39:28.920Z,98752.94
2018-03-29T19:41:57.916Z,98760.11
2018-03-29T19:44:26.909Z,98767.84
2018-03-29T19:46:56.246Z,98765.98
2018-03-29T19:49:25.525Z,98763.18
2018-03-29T19:51:54.657Z,98761.97
2018-03-29T19:54:23.656Z,98760.73
2018-03-29T19:56:53.901Z,98754.88
2018-03-29T19:59:22.895Z,98750.64
2018-03-29T20:01:52.186Z,98745.19
2018-03-29T20:04:21.526Z,98750.87
2018-03-29T20:06:50.779Z,98750.12
2018-03-29T20:09:20.017Z,98742.52
2018-03-29T20:11:49.377Z,98747.89
2018-03-29T20:14:18.453Z,98737.98
2018-03-29T20:16:48.074Z,98734.02
2018-03-29T20:19:17.486Z,98738.75
2018-03-29T20:21:46.850Z,98740.98
2018-03-29T20:24:16.173Z,98736.80
2018-03-29T20:26:45.372Z,98739.63
2018-03-29T20:29:14.876Z,98727.92
2018-03-29T20:31:44.346Z,98731.77
2018-03-29T20:34:13.119Z,98731.03
2018-03-29T20:36:42.095Z,98729.44
2018-03-29T20:39:11.158Z,98725.33
2018-03-29T20:41:40.233Z,98723.58
2018-03-29T20:44:09.148Z,98719.66
2018-03-29T20:46:38.413Z,98722.59
2018-03-29T20:49:07.620Z,98723.84
2018-03-29T20:51:36.715Z,98724.33
2018-03-29T20:54:06.063Z,98726.98
2018-03-29T20:56:35.301Z,98721.94
2018-03-29T20:59:05.267Z,98719.33
2018-03-29T21:01:35.413Z,98724.91
2018-03-29T21:04:04.426Z,98723.00
2018-03-29T21:06:33.510Z,98719.58
2018-03-29T21:09:02.440Z,98718.53
2018-03-29T21:11:31.649Z,98727.31
2018-03-29T21:14:00.784Z,98724.39
2018-03-29T21:16:29.524Z,98716.59
2018-03-29T21:18:59.141Z,98718.13
2018-03-29T21:21:28.114Z,98714.71
2018-03-29T21:23:57.008Z,98709.66
2018-03-29T21:26:26.419Z,98704.22
2018-03-29T21:28:55.361Z,98704.89
2018-03-29T21:31:24.440Z,98694.86
2018-03-29T21:33:53.507Z,98697.57
2018-03-29T21:36:22.735Z,98703.70
2018-03-29T21:38:52.080Z,98694.58
2018-03-29T21:41:21.299Z,98681.48
2018-03-29T21:43:50.491Z,98683.56
2018-03-29T21:46:19.857Z,98684.33
2018-03-29T21:48:48.729Z,98678.06
2018-03-29T21:51:17.873Z,98675.31
2018-03-29T21:53:47.135Z,98682.56
2018-03-29T21:56:16.228Z,98676.02
2018-03-29T21:58:45.595Z,98676.02
2018-03-29T22:01:14.914Z,98674.89
2018-03-29T22:03:44.460Z,98669.50
2018-03-29T22:06:13.663Z,98670.44
2018-03-29T22:08:43.246Z,98669.67
2018-03-29T22:11:12.715Z,98665.14
2018-03-29T22:14:05.590Z,98665.22
2018-03-29T22:16:35.076Z,98665.53
2018-03-29T22:19:04.368Z,98666.53
2018-03-29T22:21:33.356Z,98668.42
2018-03-29T22:24:02.405Z,98664.00
2018-03-29T22:26:31.534Z,98657.34
2018-03-29T22:29:00.444Z,98657.55
2018-03-29T22:31:29.611Z,98655.78
2018-03-29T22:33:58.942Z,98660.37
2018-03-29T22:36:28.416Z,98653.38
2018-03-29T22:38:57.396Z,98659.32
2018-03-29T22:41:26.647Z,98662.73
2018-03-29T22:43:56.008Z,98661.70
2018-03-29T22:46:24.805Z,98665.13
2018-03-29T22:48:54.073Z,98663.61
2018-03-29T22:51:23.451Z,98668.28
2018-03-29T22:53:52.797Z,98669.78
2018-03-29T22:56:22.234Z,98677.30
2018-03-29T22:58:51.476Z,98671.87
2018-03-29T23:01:20.214Z,98675.63
2018-03-29T23:03:49.187Z,98683.06
2018-03-29T23:06:18.144Z,98676.20
2018-03-29T23:08:47.024Z,98676.20
2018-03-29T23:11:16.005Z,98679.95
2018-03-29T23:13:44.786Z,98692.77
2018-03-29T23:16:13.522Z,98693.80
2018-03-29T23:18:43.034Z,98692.20
2018-03-29T23:21:12.370Z,98695.97
2018-03-29T23:23:41.341Z,98693.81
2018-03-29T23:26:10.449Z,98701.27
2018-03-29T23:28:39.528Z,98703.47
2018-03-29T23:31:08.615Z,98706.28
2018-03-29T23:33:38.000Z,98706.06
2018-03-29T23:36:07.028Z,98703.56
2018-03-29T23:38:35.981Z,98703.56
2018-03-29T23:41:05.217Z,98707.40
2018-03-29T23:43:34.345Z,98714.14
2018-03-29T23:46:03.415Z,98718.88
2018-03-29T23:48:32.337Z,98721.33
2018-03-29T23:51:01.540Z,98724.11
2018-03-29T23:53:30.640Z,98724.23
2018-03-29T23:55:59.867Z,98725.61
2018-03-29T23:58:29.088Z,98718.22
